sensor_id;sensor_type;location;lat;lon;timestamp;temperature;humidity
9193;DHT22;4631;49.296;10.560;2023-03-01T00:01:52;-0.90;99.90
9193;DHT22;4631;49.296;10.560;2023-03-01T00:04:19;-0.90;99.90
9193;DHT22;4631;49.296;10.560;2023-03-01T00:06:46;-0.90;99.90
9193;DHT22;4631;49.296;10.560;2023-03-01T00:09:12;-0.90;99.90
9193;DHT22;4631;49.296;10.560;2023-03-01T00:11:39;-1.00;99.90
9193;DHT22;4631;49.296;10.560;2023-03-01T00:14:07;-1.00;99.90
9193;DHT22;4631;49.296;10.560;2023-03-01T00:16:34;-1.00;99.90
9193;DHT22;4631;49.296;10.560;2023-03-01T00:19:03;-1.00;99.90
9193;DHT22;4631;49.296;10.560;2023-03-01T00:21:30;-1.00;99.90
9193;DHT22;4631;49.296;10.560;2023-03-01T00:23:57;-1.00;99.90
9193;DHT22;4631;49.296;10.560;2023-03-01T00:26:24;-1.10;99.90
9193;DHT22;4631;49.296;10.560;2023-03-01T00:28:51;-1.10;99.90
9193;DHT22;4631;49.296;10.560;2023-03-01T00:31:20;-1.10;99.90
9193;DHT22;4631;49.296;10.560;2023-03-01T00:33:47;-1.20;99.90
9193;DHT22;4631;49.296;10.560;2023-03-01T00:36:14;-1.20;99.90
9193;DHT22;4631;49.296;10.560;2023-03-01T00:38:42;-1.20;99.90
9193;DHT22;4631;49.296;10.560;2023-03-01T00:41:09;-1.20;99.90
9193;DHT22;4631;49.296;10.560;2023-03-01T00:43:36;-1.30;99.90
9193;DHT22;4631;49.296;10.560;2023-03-01T00:46:03;-1.30;99.90
9193;DHT22;4631;49.296;10.560;2023-03-01T00:48:31;-1.30;99.90
9193;DHT22;4631;49.296;10.560;2023-03-01T00:51:03;-1.30;99.90
9193;DHT22;4631;49.296;10.560;2023-03-01T00:53:30;-1.30;99.90
9193;DHT22;4631;49.296;10.560;2023-03-01T00:55:57;-1.30;99.90
9193;DHT22;4631;49.296;10.560;2023-03-01T00:58:24;-1.30;99.90
9193;DHT22;4631;49.296;10.560;2023-03-01T01:00:50;-1.30;99.90
9193;DHT22;4631;49.296;10.560;2023-03-01T01:03:17;-1.30;99.90
9193;DHT22;4631;49.296;10.560;2023-03-01T01:05:45;-1.30;99.90
9193;DHT22;4631;49.296;10.560;2023-03-01T01:08:12;-1.30;99.90
9193;DHT22;4631;49.296;10.560;2023-03-01T01:10:38;-1.30;99.90
9193;DHT22;4631;49.296;10.560;2023-03-01T01:13:05;-1.30;99.90
9193;DHT22;4631;49.296;10.560;2023-03-01T01:15:33;-1.30;99.90
9193;DHT22;4631;49.296;10.560;2023-03-01T01:17:59;-1.30;99.90
9193;DHT22;4631;49.296;10.560;2023-03-01T01:20:26;-1.30;99.90
9193;DHT22;4631;49.296;10.560;2023-03-01T01:22:54;-1.30;99.90
9193;DHT22;4631;49.296;10.560;2023-03-01T01:25:21;-1.30;99.90
9193;DHT22;4631;49.296;10.560;2023-03-01T01:27:50;-1.30;99.90
9193;DHT22;4631;49.296;10.560;2023-03-01T01:30:16;-1.30;99.90
9193;DHT22;4631;49.296;10.560;2023-03-01T01:32:43;-1.30;99.90
9193;DHT22;4631;49.296;10.560;2023-03-01T01:35:10;-1.30;99.90
9193;DHT22;4631;49.296;10.560;2023-03-01T01:37:36;-1.30;99.90
9193;DHT22;4631;49.296;10.560;2023-03-01T01:40:05;-1.30;99.90
9193;DHT22;4631;49.296;10.560;2023-03-01T01:42:31;-1.40;99.90
9193;DHT22;4631;49.296;10.560;2023-03-01T01:47:44;-1.40;99.90
9193;DHT22;4631;49.296;10.560;2023-03-01T01:50:16;-1.50;99.90
9193;DHT22;4631;49.296;10.560;2023-03-01T01:52:43;-1.40;99.90
9193;DHT22;4631;49.296;10.560;2023-03-01T01:55:14;-1.40;99.90
9193;DHT22;4631;49.296;10.560;2023-03-01T01:57:43;-1.40;99.90
9193;DHT22;4631;49.296;10.560;2023-03-01T02:00:13;-1.40;99.90
9193;DHT22;4631;49.296;10.560;2023-03-01T02:02:40;-1.40;99.90
9193;DHT22;4631;49.296;10.560;2023-03-01T02:05:09;-1.40;99.90
9193;DHT22;4631;49.296;10.560;2023-03-01T02:07:37;-1.50;99.90
9193;DHT22;4631;49.296;10.560;2023-03-01T02:10:05;-1.40;99.90
9193;DHT22;4631;49.296;10.560;2023-03-01T02:12:33;-1.50;99.90
9193;DHT22;4631;49.296;10.560;2023-03-01T02:15:00;-1.50;99.90
9193;DHT22;4631;49.296;10.560;2023-03-01T02:17:27;-1.50;99.90
9193;DHT22;4631;49.296;10.560;2023-03-01T02:19:57;-1.50;99.90
9193;DHT22;4631;49.296;10.560;2023-03-01T02:22:27;-1.50;99.90
9193;DHT22;4631;49.296;10.560;2023-03-01T02:24:58;-1.60;99.90
9193;DHT22;4631;49.296;10.560;2023-03-01T02:27:28;-1.60;99.90
9193;DHT22;4631;49.296;10.560;2023-03-01T02:29:58;-1.60;99.90
9193;DHT22;4631;49.296;10.560;2023-03-01T02:32:24;-1.70;99.90
9193;DHT22;4631;49.296;10.560;2023-03-01T02:34:52;-1.70;99.90
9193;DHT22;4631;49.296;10.560;2023-03-01T02:37:19;-1.70;99.90
9193;DHT22;4631;49.296;10.560;2023-03-01T02:39:51;-1.70;99.90
9193;DHT22;4631;49.296;10.560;2023-03-01T02:42:20;-1.70;99.90
9193;DHT22;4631;49.296;10.560;2023-03-01T02:44:49;-1.70;99.90
9193;DHT22;4631;49.296;10.560;2023-03-01T02:47:17;-1.70;99.90
9193;DHT22;4631;49.296;10.560;2023-03-01T02:49:43;-1.70;99.90
9193;DHT22;4631;49.296;10.560;2023-03-01T02:54:56;-1.70;99.90
9193;DHT22;4631;49.296;10.560;2023-03-01T02:57:24;-1.70;99.90
9193;DHT22;4631;49.296;10.560;2023-03-01T02:59:53;-1.70;99.90
9193;DHT22;4631;49.296;10.560;2023-03-01T03:02:23;-1.70;99.90
9193;DHT22;4631;49.296;10.560;2023-03-01T03:05:02;-1.70;99.90
9193;DHT22;4631;49.296;10.560;2023-03-01T03:07:31;-1.70;99.90
9193;DHT22;4631;49.296;10.560;2023-03-01T03:09:58;-1.80;99.90
9193;DHT22;4631;49.296;10.560;2023-03-01T03:12:25;-1.80;99.90
9193;DHT22;4631;49.296;10.560;2023-03-01T03:14:51;-1.80;99.90
9193;DHT22;4631;49.296;10.560;2023-03-01T03:17:18;-1.80;99.90
9193;DHT22;4631;49.296;10.560;2023-03-01T03:19:46;-1.80;99.90
9193;DHT22;4631;49.296;10.560;2023-03-01T03:22:13;-1.70;99.90
9193;DHT22;4631;49.296;10.560;2023-03-01T03:24:39;-1.80;99.90
9193;DHT22;4631;49.296;10.560;2023-03-01T03:27:07;-1.80;99.90
9193;DHT22;4631;49.296;10.560;2023-03-01T03:29:33;-1.80;99.90
9193;DHT22;4631;49.296;10.560;2023-03-01T03:32:00;-1.80;99.90
9193;DHT22;4631;49.296;10.560;2023-03-01T03:34:27;-1.80;99.90
9193;DHT22;4631;49.296;10.560;2023-03-01T03:36:55;-1.80;99.90
9193;DHT22;4631;49.296;10.560;2023-03-01T03:39:24;-1.80;99.90
9193;DHT22;4631;49.296;10.560;2023-03-01T03:41:51;-1.80;99.90
9193;DHT22;4631;49.296;10.560;2023-03-01T03:44:18;-1.80;99.90
9193;DHT22;4631;49.296;10.560;2023-03-01T03:46:44;-1.80;99.90
9193;DHT22;4631;49.296;10.560;2023-03-01T03:49:12;-1.80;99.90
9193;DHT22;4631;49.296;10.560;2023-03-01T03:51:38;-1.80;99.90
9193;DHT22;4631;49.296;10.560;2023-03-01T03:54:06;-1.80;99.90
9193;DHT22;4631;49.296;10.560;2023-03-01T03:56:33;-1.90;99.90
9193;DHT22;4631;49.296;10.560;2023-03-01T03:59:00;-1.80;99.90
9193;DHT22;4631;49.296;10.560;2023-03-01T04:01:26;-1.80;99.90
9193;DHT22;4631;49.296;10.560;2023-03-01T04:03:53;-1.90;99.90
9193;DHT22;4631;49.296;10.560;2023-03-01T04:06:21;-1.90;99.90
9193;DHT22;4631;49.296;10.560;2023-03-01T04:08:47;-1.90;99.90
9193;DHT22;4631;49.296;10.560;2023-03-01T04:11:17;-2.00;99.90
9193;DHT22;4631;49.296;10.560;2023-03-01T04:13:54;-2.00;99.90
9193;DHT22;4631;49.296;10.560;2023-03-01T04:16:21;-1.90;99.90
9193;DHT22;4631;49.296;10.560;2023-03-01T04:18:48;-2.00;99.90
9193;DHT22;4631;49.296;10.560;2023-03-01T04:21:15;-2.00;99.90
9193;DHT22;4631;49.296;10.560;2023-03-01T04:23:41;-2.00;99.90
9193;DHT22;4631;49.296;10.560;2023-03-01T04:26:08;-2.00;99.90
9193;DHT22;4631;49.296;10.560;2023-03-01T04:28:37;-2.00;99.90
9193;DHT22;4631;49.296;10.560;2023-03-01T04:31:05;-2.00;99.90
9193;DHT22;4631;49.296;10.560;2023-03-01T04:33:38;-2.00;99.90
9193;DHT22;4631;49.296;10.560;2023-03-01T04:36:05;-2.00;99.90
9193;DHT22;4631;49.296;10.560;2023-03-01T04:38:34;-2.00;99.90
9193;DHT22;4631;49.296;10.560;2023-03-01T04:41:09;-2.00;99.90
9193;DHT22;4631;49.296;10.560;2023-03-01T04:43:38;-2.00;99.90
9193;DHT22;4631;49.296;10.560;2023-03-01T04:46:05;-2.00;99.90
9193;DHT22;4631;49.296;10.560;2023-03-01T04:48:39;-2.10;99.90
9193;DHT22;4631;49.296;10.560;2023-03-01T04:51:07;-2.10;99.90
9193;DHT22;4631;49.296;10.560;2023-03-01T04:53:33;-2.10;99.90
9193;DHT22;4631;49.296;10.560;2023-03-01T04:56:01;-2.10;99.90
9193;DHT22;4631;49.296;10.560;2023-03-01T04:58:28;-2.10;99.90
9193;DHT22;4631;49.296;10.560;2023-03-01T05:00:56;-2.10;99.90
9193;DHT22;4631;49.296;10.560;2023-03-01T05:03:22;-2.10;99.90
9193;DHT22;4631;49.296;10.560;2023-03-01T05:05:50;-2.10;99.90
9193;DHT22;4631;49.296;10.560;2023-03-01T05:08:17;-2.10;99.90
9193;DHT22;4631;49.296;10.560;2023-03-01T05:10:44;-2.10;99.90
9193;DHT22;4631;49.296;10.560;2023-03-01T05:13:12;-2.10;99.90
9193;DHT22;4631;49.296;10.560;2023-03-01T05:15:40;-2.10;99.90
9193;DHT22;4631;49.296;10.560;2023-03-01T05:18:08;-2.10;99.90
9193;DHT22;4631;49.296;10.560;2023-03-01T05:20:36;-2.20;99.90
9193;DHT22;4631;49.296;10.560;2023-03-01T05:23:03;-2.10;99.90
9193;DHT22;4631;49.296;10.560;2023-03-01T05:25:31;-2.20;99.90
9193;DHT22;4631;49.296;10.560;2023-03-01T05:27:58;-2.20;99.90
9193;DHT22;4631;49.296;10.560;2023-03-01T05:30:28;-2.30;99.90
9193;DHT22;4631;49.296;10.560;2023-03-01T05:32:55;-2.30;99.90
9193;DHT22;4631;49.296;10.560;2023-03-01T05:35:23;-2.30;99.90
9193;DHT22;4631;49.296;10.560;2023-03-01T05:37:50;-2.30;99.90
9193;DHT22;4631;49.296;10.560;2023-03-01T05:40:17;-2.30;99.90
9193;DHT22;4631;49.296;10.560;2023-03-01T05:42:45;-2.40;99.90
9193;DHT22;4631;49.296;10.560;2023-03-01T05:45:12;-2.40;99.90
9193;DHT22;4631;49.296;10.560;2023-03-01T05:47:39;-2.40;99.90
9193;DHT22;4631;49.296;10.560;2023-03-01T05:50:10;-2.40;99.90
9193;DHT22;4631;49.296;10.560;2023-03-01T05:52:38;-2.40;99.90
9193;DHT22;4631;49.296;10.560;2023-03-01T05:55:05;-2.40;99.90
9193;DHT22;4631;49.296;10.560;2023-03-01T05:57:32;-2.40;99.90
9193;DHT22;4631;49.296;10.560;2023-03-01T05:59:59;-2.50;99.90
9193;DHT22;4631;49.296;10.560;2023-03-01T06:02:25;-2.40;99.90
9193;DHT22;4631;49.296;10.560;2023-03-01T06:04:52;-2.50;99.90
9193;DHT22;4631;49.296;10.560;2023-03-01T06:07:19;-2.50;99.90
9193;DHT22;4631;49.296;10.560;2023-03-01T06:09:47;-2.50;99.90
9193;DHT22;4631;49.296;10.560;2023-03-01T06:12:13;-2.50;99.90
9193;DHT22;4631;49.296;10.560;2023-03-01T06:14:40;-2.50;99.90
9193;DHT22;4631;49.296;10.560;2023-03-01T06:17:07;-2.50;99.90
9193;DHT22;4631;49.296;10.560;2023-03-01T06:19:33;-2.50;99.90
9193;DHT22;4631;49.296;10.560;2023-03-01T06:22:00;-2.50;99.90
9193;DHT22;4631;49.296;10.560;2023-03-01T06:24:26;-2.50;99.90
9193;DHT22;4631;49.296;10.560;2023-03-01T06:26:55;-2.40;99.90
9193;DHT22;4631;49.296;10.560;2023-03-01T06:29:22;-2.40;99.90
9193;DHT22;4631;49.296;10.560;2023-03-01T06:31:49;-2.40;99.90
9193;DHT22;4631;49.296;10.560;2023-03-01T06:34:16;-2.30;99.90
9193;DHT22;4631;49.296;10.560;2023-03-01T06:36:43;-2.30;99.90
9193;DHT22;4631;49.296;10.560;2023-03-01T06:39:09;-2.20;99.90
9193;DHT22;4631;49.296;10.560;2023-03-01T06:41:36;-2.30;99.90
9193;DHT22;4631;49.296;10.560;2023-03-01T06:44:04;-2.30;99.90
9193;DHT22;4631;49.296;10.560;2023-03-01T06:46:30;-2.30;99.90
9193;DHT22;4631;49.296;10.560;2023-03-01T06:48:58;-2.30;99.90
9193;DHT22;4631;49.296;10.560;2023-03-01T06:51:25;-2.30;99.90
9193;DHT22;4631;49.296;10.560;2023-03-01T06:53:52;-2.30;99.90
9193;DHT22;4631;49.296;10.560;2023-03-01T06:56:18;-2.20;99.90
9193;DHT22;4631;49.296;10.560;2023-03-01T06:58:45;-2.20;99.90
9193;DHT22;4631;49.296;10.560;2023-03-01T07:01:13;-2.20;99.90
9193;DHT22;4631;49.296;10.560;2023-03-01T07:03:39;-2.20;99.90
9193;DHT22;4631;49.296;10.560;2023-03-01T07:06:06;-2.10;99.90
9193;DHT22;4631;49.296;10.560;2023-03-01T07:08:33;-2.00;99.90
9193;DHT22;4631;49.296;10.560;2023-03-01T07:10:59;-2.00;99.90
9193;DHT22;4631;49.296;10.560;2023-03-01T07:13:27;-2.00;99.90
9193;DHT22;4631;49.296;10.560;2023-03-01T07:15:54;-2.00;99.90
9193;DHT22;4631;49.296;10.560;2023-03-01T07:18:22;-1.90;99.90
9193;DHT22;4631;49.296;10.560;2023-03-01T07:20:49;-2.00;99.90
9193;DHT22;4631;49.296;10.560;2023-03-01T07:23:15;-2.00;99.90
9193;DHT22;4631;49.296;10.560;2023-03-01T07:25:42;-2.00;99.90
9193;DHT22;4631;49.296;10.560;2023-03-01T07:28:09;-2.00;99.90
9193;DHT22;4631;49.296;10.560;2023-03-01T07:30:37;-1.90;99.90
9193;DHT22;4631;49.296;10.560;2023-03-01T07:33:05;-1.90;99.90
9193;DHT22;4631;49.296;10.560;2023-03-01T07:35:34;-1.80;99.90
9193;DHT22;4631;49.296;10.560;2023-03-01T07:38:01;-1.80;99.90
9193;DHT22;4631;49.296;10.560;2023-03-01T07:40:27;-1.80;99.90
9193;DHT22;4631;49.296;10.560;2023-03-01T07:42:57;-1.80;99.90
9193;DHT22;4631;49.296;10.560;2023-03-01T07:45:24;-1.80;99.90
9193;DHT22;4631;49.296;10.560;2023-03-01T07:47:51;-1.70;99.90
9193;DHT22;4631;49.296;10.560;2023-03-01T07:50:18;-1.70;99.90
9193;DHT22;4631;49.296;10.560;2023-03-01T07:52:46;-1.70;99.90
9193;DHT22;4631;49.296;10.560;2023-03-01T07:55:12;-1.70;99.90
9193;DHT22;4631;49.296;10.560;2023-03-01T07:57:39;-1.60;99.90
9193;DHT22;4631;49.296;10.560;2023-03-01T08:00:06;-1.60;99.90
9193;DHT22;4631;49.296;10.560;2023-03-01T08:02:33;-1.50;99.90
9193;DHT22;4631;49.296;10.560;2023-03-01T08:05:00;-1.50;99.90
9193;DHT22;4631;49.296;10.560;2023-03-01T08:07:26;-1.40;99.90
9193;DHT22;4631;49.296;10.560;2023-03-01T08:09:54;-1.40;99.90
9193;DHT22;4631;49.296;10.560;2023-03-01T08:12:21;-1.30;99.90
9193;DHT22;4631;49.296;10.560;2023-03-01T08:14:47;-1.20;99.90
9193;DHT22;4631;49.296;10.560;2023-03-01T08:17:16;-1.20;99.90
9193;DHT22;4631;49.296;10.560;2023-03-01T08:19:43;-1.10;99.90
9193;DHT22;4631;49.296;10.560;2023-03-01T08:22:10;-1.10;99.90
9193;DHT22;4631;49.296;10.560;2023-03-01T08:24:36;-1.10;99.90
9193;DHT22;4631;49.296;10.560;2023-03-01T08:27:04;-1.00;99.90
9193;DHT22;4631;49.296;10.560;2023-03-01T08:29:34;-1.00;99.90
9193;DHT22;4631;49.296;10.560;2023-03-01T08:32:02;-0.90;99.90
9193;DHT22;4631;49.296;10.560;2023-03-01T08:34:28;-0.80;99.90
9193;DHT22;4631;49.296;10.560;2023-03-01T08:36:56;-0.80;99.90
9193;DHT22;4631;49.296;10.560;2023-03-01T08:39:23;-0.70;99.90
9193;DHT22;4631;49.296;10.560;2023-03-01T08:41:50;-0.70;99.90
9193;DHT22;4631;49.296;10.560;2023-03-01T08:44:18;-0.60;99.90
9193;DHT22;4631;49.296;10.560;2023-03-01T08:46:46;-0.50;99.90
9193;DHT22;4631;49.296;10.560;2023-03-01T08:49:16;-0.50;99.90
9193;DHT22;4631;49.296;10.560;2023-03-01T08:51:43;-0.40;99.90
9193;DHT22;4631;49.296;10.560;2023-03-01T08:54:11;-0.30;99.90
9193;DHT22;4631;49.296;10.560;2023-03-01T08:56:38;-0.30;99.90
9193;DHT22;4631;49.296;10.560;2023-03-01T08:59:05;-0.20;99.90
9193;DHT22;4631;49.296;10.560;2023-03-01T09:01:33;0.00;99.90
9193;DHT22;4631;49.296;10.560;2023-03-01T09:04:00;0.00;99.90
9193;DHT22;4631;49.296;10.560;2023-03-01T09:06:26;0.10;99.90
9193;DHT22;4631;49.296;10.560;2023-03-01T09:08:53;0.20;99.90
9193;DHT22;4631;49.296;10.560;2023-03-01T09:11:20;0.30;99.90
9193;DHT22;4631;49.296;10.560;2023-03-01T09:13:47;0.40;99.90
9193;DHT22;4631;49.296;10.560;2023-03-01T09:16:15;0.40;99.90
9193;DHT22;4631;49.296;10.560;2023-03-01T09:18:44;0.50;99.90
9193;DHT22;4631;49.296;10.560;2023-03-01T09:21:11;0.60;99.90
9193;DHT22;4631;49.296;10.560;2023-03-01T09:23:39;0.60;99.90
9193;DHT22;4631;49.296;10.560;2023-03-01T09:26:06;0.70;99.90
9193;DHT22;4631;49.296;10.560;2023-03-01T09:28:34;0.70;99.90
9193;DHT22;4631;49.296;10.560;2023-03-01T09:31:01;0.80;99.90
9193;DHT22;4631;49.296;10.560;2023-03-01T09:33:28;0.80;99.90
9193;DHT22;4631;49.296;10.560;2023-03-01T09:35:57;0.90;99.90
9193;DHT22;4631;49.296;10.560;2023-03-01T09:38:24;0.90;99.90
9193;DHT22;4631;49.296;10.560;2023-03-01T09:40:50;1.10;99.90
9193;DHT22;4631;49.296;10.560;2023-03-01T09:43:18;1.10;99.90
9193;DHT22;4631;49.296;10.560;2023-03-01T09:45:47;1.20;99.90
9193;DHT22;4631;49.296;10.560;2023-03-01T09:48:16;1.20;99.90
9193;DHT22;4631;49.296;10.560;2023-03-01T09:50:44;1.40;99.90
9193;DHT22;4631;49.296;10.560;2023-03-01T09:53:14;1.50;99.90
9193;DHT22;4631;49.296;10.560;2023-03-01T09:55:43;1.50;99.90
9193;DHT22;4631;49.296;10.560;2023-03-01T09:58:20;1.60;99.90
9193;DHT22;4631;49.296;10.560;2023-03-01T10:00:51;1.70;99.90
9193;DHT22;4631;49.296;10.560;2023-03-01T10:03:21;1.80;99.90
9193;DHT22;4631;49.296;10.560;2023-03-01T10:05:56;1.80;99.90
9193;DHT22;4631;49.296;10.560;2023-03-01T10:08:28;1.90;99.90
9193;DHT22;4631;49.296;10.560;2023-03-01T10:10:56;2.00;99.90
9193;DHT22;4631;49.296;10.560;2023-03-01T10:13:24;2.20;99.90
9193;DHT22;4631;49.296;10.560;2023-03-01T10:15:52;2.20;99.90
9193;DHT22;4631;49.296;10.560;2023-03-01T10:18:22;2.20;99.90
9193;DHT22;4631;49.296;10.560;2023-03-01T10:20:51;2.30;99.90
9193;DHT22;4631;49.296;10.560;2023-03-01T10:23:19;2.40;99.90
9193;DHT22;4631;49.296;10.560;2023-03-01T10:25:55;2.60;99.90
9193;DHT22;4631;49.296;10.560;2023-03-01T10:28:25;2.60;99.90
9193;DHT22;4631;49.296;10.560;2023-03-01T10:30:53;2.70;99.90
9193;DHT22;4631;49.296;10.560;2023-03-01T10:33:20;2.80;99.90
9193;DHT22;4631;49.296;10.560;2023-03-01T10:35:47;2.90;99.90
9193;DHT22;4631;49.296;10.560;2023-03-01T10:38:14;3.00;99.90
9193;DHT22;4631;49.296;10.560;2023-03-01T10:40:59;3.20;99.90
9193;DHT22;4631;49.296;10.560;2023-03-01T10:43:27;3.30;99.90
9193;DHT22;4631;49.296;10.560;2023-03-01T10:45:57;3.40;99.90
9193;DHT22;4631;49.296;10.560;2023-03-01T10:48:25;3.50;99.90
9193;DHT22;4631;49.296;10.560;2023-03-01T10:51:04;3.60;99.90
9193;DHT22;4631;49.296;10.560;2023-03-01T10:53:32;3.70;99.90
9193;DHT22;4631;49.296;10.560;2023-03-01T10:56:01;3.80;99.90
9193;DHT22;4631;49.296;10.560;2023-03-01T10:58:31;3.90;99.90
9193;DHT22;4631;49.296;10.560;2023-03-01T11:00:58;4.00;99.90
9193;DHT22;4631;49.296;10.560;2023-03-01T11:03:26;4.10;99.90
9193;DHT22;4631;49.296;10.560;2023-03-01T11:05:58;4.20;99.90
9193;DHT22;4631;49.296;10.560;2023-03-01T11:08:41;4.30;99.90
9193;DHT22;4631;49.296;10.560;2023-03-01T11:11:18;4.40;99.90
9193;DHT22;4631;49.296;10.560;2023-03-01T11:13:50;4.50;99.90
9193;DHT22;4631;49.296;10.560;2023-03-01T11:16:22;4.60;99.90
9193;DHT22;4631;49.296;10.560;2023-03-01T11:18:55;4.60;99.90
9193;DHT22;4631;49.296;10.560;2023-03-01T11:21:22;4.70;99.90
9193;DHT22;4631;49.296;10.560;2023-03-01T11:23:49;4.80;99.90
9193;DHT22;4631;49.296;10.560;2023-03-01T11:26:16;5.00;99.90
9193;DHT22;4631;49.296;10.560;2023-03-01T11:28:45;5.10;99.90
9193;DHT22;4631;49.296;10.560;2023-03-01T11:31:13;5.30;99.90
9193;DHT22;4631;49.296;10.560;2023-03-01T11:33:43;5.30;99.90
9193;DHT22;4631;49.296;10.560;2023-03-01T11:36:13;5.40;99.90
9193;DHT22;4631;49.296;10.560;2023-03-01T11:38:42;5.50;99.90
9193;DHT22;4631;49.296;10.560;2023-03-01T11:41:11;5.60;99.90
9193;DHT22;4631;49.296;10.560;2023-03-01T11:43:42;5.80;99.90
9193;DHT22;4631;49.296;10.560;2023-03-01T11:48:59;5.90;99.90
9193;DHT22;4631;49.296;10.560;2023-03-01T11:51:34;5.90;99.90
9193;DHT22;4631;49.296;10.560;2023-03-01T11:54:12;6.10;99.90
9193;DHT22;4631;49.296;10.560;2023-03-01T11:56:40;6.10;99.90
9193;DHT22;4631;49.296;10.560;2023-03-01T11:59:13;6.10;99.90
9193;DHT22;4631;49.296;10.560;2023-03-01T12:01:51;5.90;99.90
9193;DHT22;4631;49.296;10.560;2023-03-01T12:04:47;5.90;99.90
9193;DHT22;4631;49.296;10.560;2023-03-01T12:07:18;6.00;99.90
9193;DHT22;4631;49.296;10.560;2023-03-01T12:09:54;6.20;99.90
9193;DHT22;4631;49.296;10.560;2023-03-01T12:12:31;6.30;99.90
9193;DHT22;4631;49.296;10.560;2023-03-01T12:15:07;6.50;99.90
9193;DHT22;4631;49.296;10.560;2023-03-01T12:17:41;6.90;99.90
9193;DHT22;4631;49.296;10.560;2023-03-01T12:20:24;6.90;99.90
9193;DHT22;4631;49.296;10.560;2023-03-01T12:22:56;7.00;99.90
9193;DHT22;4631;49.296;10.560;2023-03-01T12:25:27;7.10;99.90
9193;DHT22;4631;49.296;10.560;2023-03-01T12:30:44;7.40;99.90
9193;DHT22;4631;49.296;10.560;2023-03-01T12:33:17;7.40;99.90
9193;DHT22;4631;49.296;10.560;2023-03-01T12:35:51;7.50;99.90
9193;DHT22;4631;49.296;10.560;2023-03-01T12:38:23;7.50;99.90
9193;DHT22;4631;49.296;10.560;2023-03-01T12:40:56;7.70;99.90
9193;DHT22;4631;49.296;10.560;2023-03-01T12:43:32;7.60;99.90
9193;DHT22;4631;49.296;10.560;2023-03-01T12:46:09;7.60;99.90
9193;DHT22;4631;49.296;10.560;2023-03-01T12:48:39;7.60;99.90
9193;DHT22;4631;49.296;10.560;2023-03-01T12:51:08;7.70;99.90
9193;DHT22;4631;49.296;10.560;2023-03-01T12:53:39;7.60;99.90
9193;DHT22;4631;49.296;10.560;2023-03-01T12:56:07;7.60;99.90
9193;DHT22;4631;49.296;10.560;2023-03-01T12:58:35;7.70;99.90
9193;DHT22;4631;49.296;10.560;2023-03-01T13:01:06;7.80;99.90
9193;DHT22;4631;49.296;10.560;2023-03-01T13:03:44;7.80;99.90
9193;DHT22;4631;49.296;10.560;2023-03-01T13:06:17;8.00;99.90
9193;DHT22;4631;49.296;10.560;2023-03-01T13:08:48;8.10;99.90
9193;DHT22;4631;49.296;10.560;2023-03-01T13:11:16;8.20;99.90
9193;DHT22;4631;49.296;10.560;2023-03-01T13:13:44;8.40;99.90
9193;DHT22;4631;49.296;10.560;2023-03-01T13:16:20;8.60;99.90
9193;DHT22;4631;49.296;10.560;2023-03-01T13:18:47;8.60;99.90
9193;DHT22;4631;49.296;10.560;2023-03-01T13:21:14;8.50;99.90
9193;DHT22;4631;49.296;10.560;2023-03-01T13:23:56;8.60;99.90
9193;DHT22;4631;49.296;10.560;2023-03-01T13:26:22;8.70;99.90
9193;DHT22;4631;49.296;10.560;2023-03-01T13:28:50;8.60;99.90
9193;DHT22;4631;49.296;10.560;2023-03-01T13:34:02;8.70;99.90
9193;DHT22;4631;49.296;10.560;2023-03-01T13:36:46;8.60;99.90
9193;DHT22;4631;49.296;10.560;2023-03-01T13:39:28;8.80;99.90
9193;DHT22;4631;49.296;10.560;2023-03-01T13:41:57;8.70;99.90
9193;DHT22;4631;49.296;10.560;2023-03-01T13:44:26;8.70;99.90
9193;DHT22;4631;49.296;10.560;2023-03-01T13:46:56;8.80;99.90
9193;DHT22;4631;49.296;10.560;2023-03-01T13:49:25;8.80;99.90
9193;DHT22;4631;49.296;10.560;2023-03-01T13:51:53;8.90;99.90
9193;DHT22;4631;49.296;10.560;2023-03-01T13:54:22;8.90;99.90
9193;DHT22;4631;49.296;10.560;2023-03-01T13:56:52;9.00;99.90
9193;DHT22;4631;49.296;10.560;2023-03-01T13:59:20;9.20;99.90
9193;DHT22;4631;49.296;10.560;2023-03-01T14:01:51;9.30;99.90
9193;DHT22;4631;49.296;10.560;2023-03-01T14:04:20;9.20;99.90
9193;DHT22;4631;49.296;10.560;2023-03-01T14:06:47;9.00;99.90
9193;DHT22;4631;49.296;10.560;2023-03-01T14:09:15;9.00;99.90
9193;DHT22;4631;49.296;10.560;2023-03-01T14:11:52;9.20;99.90
9193;DHT22;4631;49.296;10.560;2023-03-01T14:17:10;9.30;99.90
9193;DHT22;4631;49.296;10.560;2023-03-01T14:19:40;9.50;99.90
9193;DHT22;4631;49.296;10.560;2023-03-01T14:22:13;9.70;99.90
9193;DHT22;4631;49.296;10.560;2023-03-01T14:24:44;9.70;99.90
9193;DHT22;4631;49.296;10.560;2023-03-01T14:27:12;9.70;99.90
9193;DHT22;4631;49.296;10.560;2023-03-01T14:29:53;9.50;99.90
9193;DHT22;4631;49.296;10.560;2023-03-01T14:32:23;9.50;99.90
9193;DHT22;4631;49.296;10.560;2023-03-01T14:34:50;9.40;99.90
9193;DHT22;4631;49.296;10.560;2023-03-01T14:37:18;9.50;99.90
9193;DHT22;4631;49.296;10.560;2023-03-01T14:39:45;9.60;99.90
9193;DHT22;4631;49.296;10.560;2023-03-01T14:42:12;9.60;99.90
9193;DHT22;4631;49.296;10.560;2023-03-01T14:44:40;9.60;99.90
9193;DHT22;4631;49.296;10.560;2023-03-01T14:47:10;9.70;99.90
9193;DHT22;4631;49.296;10.560;2023-03-01T14:49:40;9.70;99.90
9193;DHT22;4631;49.296;10.560;2023-03-01T14:52:07;9.70;99.90
9193;DHT22;4631;49.296;10.560;2023-03-01T14:54:35;9.70;99.90
9193;DHT22;4631;49.296;10.560;2023-03-01T14:57:03;9.60;99.90
9193;DHT22;4631;49.296;10.560;2023-03-01T14:59:32;9.50;99.90
9193;DHT22;4631;49.296;10.560;2023-03-01T15:04:30;9.50;99.90
9193;DHT22;4631;49.296;10.560;2023-03-01T15:07:00;9.60;99.90
9193;DHT22;4631;49.296;10.560;2023-03-01T15:09:30;9.60;99.90
9193;DHT22;4631;49.296;10.560;2023-03-01T15:11:57;9.40;99.90
9193;DHT22;4631;49.296;10.560;2023-03-01T15:14:25;9.30;99.90
9193;DHT22;4631;49.296;10.560;2023-03-01T15:16:52;9.30;99.90
9193;DHT22;4631;49.296;10.560;2023-03-01T15:19:18;9.20;99.90
9193;DHT22;4631;49.296;10.560;2023-03-01T15:21:46;9.20;99.90
9193;DHT22;4631;49.296;10.560;2023-03-01T15:24:17;9.20;99.90
9193;DHT22;4631;49.296;10.560;2023-03-01T15:26:49;9.30;99.90
9193;DHT22;4631;49.296;10.560;2023-03-01T15:29:20;9.30;99.90
9193;DHT22;4631;49.296;10.560;2023-03-01T15:31:54;9.20;99.90
9193;DHT22;4631;49.296;10.560;2023-03-01T15:34:21;9.10;99.90
9193;DHT22;4631;49.296;10.560;2023-03-01T15:36:48;9.00;99.90
9193;DHT22;4631;49.296;10.560;2023-03-01T15:42:10;8.80;99.90
9193;DHT22;4631;49.296;10.560;2023-03-01T15:44:38;8.60;99.90
9193;DHT22;4631;49.296;10.560;2023-03-01T15:47:08;8.40;99.90
9193;DHT22;4631;49.296;10.560;2023-03-01T15:49:46;8.30;99.90
9193;DHT22;4631;49.296;10.560;2023-03-01T15:52:17;8.10;99.90
9193;DHT22;4631;49.296;10.560;2023-03-01T15:54:45;7.90;99.90
9193;DHT22;4631;49.296;10.560;2023-03-01T15:57:13;7.70;99.90
9193;DHT22;4631;49.296;10.560;2023-03-01T15:59:40;7.70;99.90
9193;DHT22;4631;49.296;10.560;2023-03-01T16:02:08;7.50;99.90
9193;DHT22;4631;49.296;10.560;2023-03-01T16:04:35;7.40;99.90
9193;DHT22;4631;49.296;10.560;2023-03-01T16:07:02;7.30;99.90
9193;DHT22;4631;49.296;10.560;2023-03-01T16:09:28;7.30;99.90
9193;DHT22;4631;49.296;10.560;2023-03-01T16:11:55;7.20;99.90
9193;DHT22;4631;49.296;10.560;2023-03-01T16:14:23;7.20;99.90
9193;DHT22;4631;49.296;10.560;2023-03-01T16:16:50;7.10;99.90
9193;DHT22;4631;49.296;10.560;2023-03-01T16:19:16;7.00;99.90
9193;DHT22;4631;49.296;10.560;2023-03-01T16:21:43;7.00;99.90
9193;DHT22;4631;49.296;10.560;2023-03-01T16:24:12;7.00;99.90